SBOSBO GVA / LSGG
Speedbird OnlineSpeedbird Online GVA / LSGG

Geneva Cointrin International Airport
02:12 0°C

Location Geneva, Switzerland
Latitude: 46.23809814453125
Longitude: 6.108950138092041
Web Airport Website | Wikipedia
Altitude 430 Meter / 1411 Feet
Distance 731 KM / 454 Miles
from London.
Time Zone UTC +1 hours (Europe/Paris)
Codes IATA: GVA
ICAO: LSGG
Currency £1 equals CHF 1.14
Runways
RunwayLength (m)Surface
043900CONC
04L823GRASS CAUTION: ATC do NOT apply wake turbulence separation!
223900CONC
22R823GRASS CAUTION: ATC do NOT apply wake turbulence separation!
Radio
TypeDescriptionFrequency
APPAPP120.3
ARRARR136.25
ATISATIS135.575
DEPDEP119.525
GNDGND121.675
GTEAPN121.75
TWRTWR118.7
Live ATC
METAR LSGG 270050Z AUTO 02011KT 350V050 9999 OVC019 00/M04 Q1016 NOSIG
TAF TAF LSGG 262325Z 2700/2806 03012KT 9999 BKN020 TX02/2715Z TNM00/2706Z TNM01/2806Z BECMG 2706/2709 03015G25KT
Weather As Of 27 Jan 2023 02:12
Description Overcast clouds
Wind 20 km/h from North (20°)
Cloud Cover 100%
Precipitation Rain: none, Snow: none
Sunrise 08:04
Sunset 17:31
Lounges Horizon Lounge, Main Terminal
Swissport Horizon Business lounge , Main Terminal
British Airways Lounge (Open), Main Terminal
Marhaba Lounge (Skyview Lounge), Terminal 1
Rotations During the last 90 days there were
734 flights from LHR
196 flights from LGW
29 flights from LCY
732 flights to LHR
188 flights to LGW
26 flights to LCY



Support Speedbird Online

© 2017-2023 Speedbird Online